createdAt,value
2023-04-27T00:03:08.516Z,100484.45
2023-04-27T00:07:14.042Z,100484.83
2023-04-27T00:11:22.967Z,100483.48
2023-04-27T00:15:26.100Z,100482.46
2023-04-27T00:19:30.900Z,100482.66
2023-04-27T00:23:34.190Z,100482.59
2023-04-27T00:27:37.100Z,100481.82
2023-04-27T00:31:45.344Z,100483.48
2023-04-27T00:35:48.401Z,100481.70
2023-04-27T00:39:51.646Z,100480.98
2023-04-27T00:43:54.620Z,100484.75
2023-04-27T00:48:00.465Z,100477.79
2023-04-27T00:52:03.666Z,100479.48
2023-04-27T00:56:08.246Z,100478.16
2023-04-27T01:00:12.347Z,100474.05
2023-04-27T01:04:17.359Z,100471.80
2023-04-27T01:08:20.525Z,100473.02
2023-04-27T01:12:24.617Z,100476.71
2023-04-27T01:16:27.529Z,100477.56
2023-04-27T01:20:30.595Z,100483.21
2023-04-27T01:24:35.494Z,100486.77
2023-04-27T01:28:40.918Z,100487.77
2023-04-27T01:32:44.003Z,100490.29
2023-04-27T01:36:46.882Z,100490.79
2023-04-27T01:40:50.837Z,100491.35
2023-04-27T01:44:54.885Z,100492.07
2023-04-27T01:48:58.359Z,100491.75
2023-04-27T01:53:01.339Z,100494.46
2023-04-27T01:57:18.184Z,100493.05
2023-04-27T02:01:21.619Z,100499.70
2023-04-27T02:05:24.545Z,100501.96
2023-04-27T02:09:27.604Z,100503.90
2023-04-27T02:13:30.578Z,100507.31
2023-04-27T02:17:36.492Z,100509.58
2023-04-27T02:22:05.057Z,100510.02
2023-04-27T02:26:18.604Z,100510.45
2023-04-27T02:30:22.878Z,100509.89
2023-04-27T02:34:32.545Z,100511.51
2023-04-27T02:38:35.386Z,100513.44
2023-04-27T02:42:39.575Z,100513.66
2023-04-27T02:46:49.410Z,100513.14
2023-04-27T02:50:52.364Z,100514.35
2023-04-27T02:54:55.306Z,100514.75
2023-04-27T02:58:58.339Z,100511.45
2023-04-27T03:03:03.021Z,100511.13
2023-04-27T03:07:08.352Z,100516.17
2023-04-27T03:11:14.604Z,100516.83
2023-04-27T03:15:17.585Z,100516.86
2023-04-27T03:19:37.959Z,100517.42
2023-04-27T03:23:41.391Z,100521.57
2023-04-27T03:27:44.385Z,100523.65
2023-04-27T03:31:47.202Z,100523.15
2023-04-27T03:35:57.484Z,100523.19
2023-04-27T03:40:00.945Z,100525.79
2023-04-27T03:44:05.071Z,100528.81
2023-04-27T03:48:08.241Z,100529.34
2023-04-27T03:52:19.059Z,100531.10
2023-04-27T03:56:22.577Z,100529.71
2023-04-27T04:00:25.454Z,100534.96
2023-04-27T04:04:29.701Z,100537.87
2023-04-27T04:08:35.030Z,100538.17
2023-04-27T04:13:05.880Z,100547.00
2023-04-27T04:17:11.657Z,100557.06
2023-04-27T04:21:19.917Z,100560.41
2023-04-27T04:25:22.770Z,100567.89
2023-04-27T04:29:25.746Z,100571.39
2023-04-27T04:33:28.584Z,100576.95
2023-04-27T04:37:35.536Z,100581.48
2023-04-27T04:41:39.071Z,100585.66
2023-04-27T04:45:42.875Z,100588.46
2023-04-27T04:49:45.888Z,100590.51
2023-04-27T04:53:50.240Z,100591.02
2023-04-27T04:57:55.764Z,100594.95
2023-04-27T05:01:58.791Z,100599.10
2023-04-27T05:06:05.667Z,100607.30
2023-04-27T05:10:08.962Z,100607.73
2023-04-27T05:14:14.027Z,100606.64
2023-04-27T05:18:17.320Z,100607.95
2023-04-27T05:22:22.146Z,100612.20
2023-04-27T05:26:25.847Z,100613.36
2023-04-27T05:30:29.190Z,100620.31
2023-04-27T05:34:33.394Z,100621.30
2023-04-27T05:38:40.401Z,100625.85
2023-04-27T05:42:46.963Z,100629.77
2023-04-27T05:46:51.905Z,100636.43
2023-04-27T05:51:04.653Z,100639.02
2023-04-27T05:55:08.379Z,100644.38
2023-04-27T05:59:12.377Z,100642.21
2023-04-27T06:03:16.073Z,100643.08
2023-04-27T06:07:19.472Z,100643.35
2023-04-27T06:11:23.966Z,100645.13
2023-04-27T06:15:27.260Z,100642.25
2023-04-27T06:19:30.536Z,100646.45
2023-04-27T06:23:34.123Z,100645.19
2023-04-27T06:27:39.439Z,100643.86
2023-04-27T06:31:42.775Z,100641.04
2023-04-27T06:35:47.718Z,100635.78
2023-04-27T06:39:51.886Z,100631.51
2023-04-27T06:43:56.278Z,100634.98
2023-04-27T06:48:01.900Z,100632.02
2023-04-27T06:52:05.342Z,100630.30
2023-04-27T06:56:12.267Z,100626.10
2023-04-27T07:00:15.591Z,100626.00
2023-04-27T07:04:18.852Z,100629.64
2023-04-27T07:08:22.157Z,100625.09
2023-04-27T07:12:25.432Z,100627.35
2023-04-27T07:16:28.762Z,100628.42
2023-04-27T07:20:33.322Z,100621.84
2023-04-27T07:24:37.783Z,100623.86
2023-04-27T07:28:41.779Z,100623.80
2023-04-27T07:32:45.065Z,100621.70
2023-04-27T07:36:49.246Z,100619.59
2023-04-27T07:40:52.957Z,100626.08
2023-04-27T07:44:57.348Z,100623.95
2023-04-27T07:49:02.546Z,100623.20
2023-04-27T07:53:06.614Z,100630.05
2023-04-27T07:57:13.867Z,100627.24
2023-04-27T08:01:20.154Z,100628.41
2023-04-27T08:05:27.277Z,100635.64
2023-04-27T08:09:31.661Z,100638.84
2023-04-27T08:13:36.371Z,100639.52
2023-04-27T08:17:42.600Z,100646.52
2023-04-27T08:21:45.786Z,100642.95
2023-04-27T08:25:48.880Z,100644.95
2023-04-27T08:29:51.957Z,100649.42
2023-04-27T08:33:57.460Z,100647.88
2023-04-27T08:38:00.756Z,100649.71
2023-04-27T08:42:12.780Z,100654.10
2023-04-27T08:46:24.184Z,100651.95
2023-04-27T08:50:28.256Z,100651.06
2023-04-27T08:54:32.093Z,100651.08
2023-04-27T08:58:39.610Z,100646.98
2023-04-27T09:02:47.424Z,100652.80
2023-04-27T09:06:51.658Z,100649.98
2023-04-27T09:10:55.985Z,100645.80
2023-04-27T09:15:06.460Z,100642.12
2023-04-27T09:19:10.655Z,100638.40
2023-04-27T09:23:31.748Z,100631.22
2023-04-27T09:27:37.992Z,100622.48
2023-04-27T09:31:42.368Z,100624.98
2023-04-27T09:35:46.625Z,100623.38
2023-04-27T09:39:50.780Z,100620.95
2023-04-27T09:43:57.680Z,100624.00
2023-04-27T09:48:02.296Z,100628.09
2023-04-27T09:52:05.996Z,100634.91
2023-04-27T09:56:31.557Z,100640.15
2023-04-27T10:00:42.940Z,100642.21
2023-04-27T10:05:10.385Z,100644.47
2023-04-27T10:09:13.734Z,100643.45
2023-04-27T10:13:26.349Z,100647.08
2023-04-27T10:17:32.365Z,100643.25
2023-04-27T10:21:35.591Z,100639.73
2023-04-27T10:25:41.084Z,100640.76
2023-04-27T10:29:46.258Z,100649.50
2023-04-27T10:33:50.012Z,100648.41
2023-04-27T10:38:08.976Z,100652.48
2023-04-27T10:42:12.221Z,100656.95
2023-04-27T10:46:16.050Z,100662.52
2023-04-27T10:50:19.602Z,100670.15
2023-04-27T10:54:26.310Z,100667.66
2023-04-27T10:58:41.508Z,100666.18
2023-04-27T11:02:52.422Z,100663.36
2023-04-27T11:06:55.446Z,100657.96
2023-04-27T11:10:58.420Z,100655.58
2023-04-27T11:15:03.920Z,100648.91
2023-04-27T11:19:07.445Z,100644.41
2023-04-27T11:23:13.610Z,100644.42
2023-04-27T11:27:17.033Z,100644.58
2023-04-27T11:31:20.841Z,100639.47
2023-04-27T11:35:34.688Z,100640.86
2023-04-27T11:39:39.134Z,100640.41
2023-04-27T11:43:43.508Z,100639.50
2023-04-27T11:47:47.682Z,100637.45
2023-04-27T11:51:51.751Z,100633.22
2023-04-27T11:55:55.070Z,100634.29
2023-04-27T12:00:01.793Z,100632.48
2023-04-27T12:04:05.243Z,100629.61
2023-04-27T12:08:08.556Z,100626.95
2023-04-27T12:12:13.258Z,100630.63
2023-04-27T12:16:17.122Z,100640.55
2023-04-27T12:20:26.461Z,100660.83
2023-04-27T12:24:29.623Z,100663.91
2023-04-27T12:28:32.689Z,100662.05
2023-04-27T12:32:36.286Z,100665.90
2023-04-27T12:36:41.681Z,100661.82
2023-04-27T12:40:45.185Z,100654.42
2023-04-27T12:44:48.145Z,100654.21
2023-04-27T12:48:51.170Z,100648.62
2023-04-27T12:52:54.267Z,100648.17
2023-04-27T12:56:57.254Z,100645.36
2023-04-27T13:01:00.573Z,100642.12
2023-04-27T13:05:08.080Z,100646.16
2023-04-27T13:09:12.203Z,100644.14
2023-04-27T13:13:16.093Z,100638.14
2023-04-27T13:17:20.421Z,100636.56
2023-04-27T13:21:23.735Z,100637.62
2023-04-27T13:25:27.239Z,100639.95
2023-04-27T13:29:30.971Z,100645.40
2023-04-27T13:33:39.411Z,100651.06
2023-04-27T13:37:42.548Z,100653.13
2023-04-27T13:41:46.164Z,100658.27
2023-04-27T13:45:50.970Z,100654.32
2023-04-27T13:49:54.004Z,100649.34
2023-04-27T13:53:57.036Z,100643.77
2023-04-27T13:57:59.921Z,100642.18
2023-04-27T14:02:03.762Z,100639.02
2023-04-27T14:06:07.877Z,100639.48
2023-04-27T14:10:11.164Z,100647.14
2023-04-27T14:14:14.275Z,100651.35
2023-04-27T14:18:18.219Z,100647.24
2023-04-27T14:22:21.410Z,100656.75
2023-04-27T14:26:26.385Z,100653.87
2023-04-27T14:30:29.830Z,100649.39
2023-04-27T14:34:32.831Z,100641.39
2023-04-27T14:38:36.539Z,100642.73
2023-04-27T14:42:39.618Z,100645.13
2023-04-27T14:46:42.774Z,100645.95
2023-04-27T14:50:47.075Z,100646.70
2023-04-27T14:54:50.143Z,100646.30
2023-04-27T14:58:55.400Z,100643.63
2023-04-27T15:02:58.473Z,100643.95
2023-04-27T15:07:03.344Z,100638.38
2023-04-27T15:11:07.683Z,100637.05
2023-04-27T15:15:12.895Z,100638.34
2023-04-27T15:19:16.152Z,100634.48
2023-04-27T15:23:19.796Z,100632.11
2023-04-27T15:27:24.051Z,100633.71
2023-04-27T15:31:27.559Z,100638.82
2023-04-27T15:35:30.866Z,100642.22
2023-04-27T15:39:35.909Z,100641.02
2023-04-27T15:43:38.856Z,100640.14
2023-04-27T15:47:42.134Z,100637.48
2023-04-27T15:51:45.945Z,100634.09
2023-04-27T15:55:49.028Z,100633.69
2023-04-27T15:59:52.705Z,100636.73
2023-04-27T16:04:00.516Z,100628.17
2023-04-27T16:08:03.534Z,100631.16
2023-04-27T16:12:06.666Z,100636.83
2023-04-27T16:16:10.792Z,100635.54
2023-04-27T16:20:14.984Z,100632.36
2023-04-27T16:24:21.576Z,100628.38
2023-04-27T16:28:24.582Z,100628.52
2023-04-27T16:32:27.707Z,100626.06
2023-04-27T16:36:33.924Z,100621.02
2023-04-27T16:40:36.872Z,100625.35
2023-04-27T16:44:40.447Z,100622.80
2023-04-27T16:48:43.540Z,100622.45
2023-04-27T16:52:46.788Z,100620.39
2023-04-27T16:56:50.555Z,100624.77
2023-04-27T17:00:53.746Z,100625.65
2023-04-27T17:04:59.582Z,100627.63
2023-04-27T17:09:03.156Z,100625.17
2023-04-27T17:13:07.784Z,100630.16
2023-04-27T17:17:11.474Z,100625.01
2023-04-27T17:21:14.464Z,100624.81
2023-04-27T17:25:17.601Z,100630.88
2023-04-27T17:29:21.693Z,100628.48
2023-04-27T17:33:24.666Z,100630.79
2023-04-27T17:37:27.690Z,100628.80
2023-04-27T17:41:32.837Z,100628.33
2023-04-27T17:45:36.724Z,100631.08
2023-04-27T17:49:39.848Z,100637.03
2023-04-27T17:53:42.975Z,100640.91
2023-04-27T17:57:47.130Z,100641.11
2023-04-27T18:01:50.157Z,100638.38
2023-04-27T18:05:53.550Z,100638.53
2023-04-27T18:09:57.619Z,100641.92
2023-04-27T18:14:00.462Z,100651.47
2023-04-27T18:18:03.327Z,100654.20
2023-04-27T18:22:06.774Z,100659.48
2023-04-27T18:26:11.677Z,100663.36
2023-04-27T18:30:15.938Z,100670.94
2023-04-27T18:34:19.695Z,100680.87
2023-04-27T18:38:23.730Z,100687.34
2023-04-27T18:42:27.106Z,100694.35
2023-04-27T18:46:30.905Z,100696.58
2023-04-27T18:50:33.867Z,100699.44
2023-04-27T18:54:37.517Z,100699.41
2023-04-27T18:58:40.983Z,100701.58
2023-04-27T19:02:44.175Z,100704.08
2023-04-27T19:06:50.059Z,100703.25
2023-04-27T19:10:53.105Z,100700.66
2023-04-27T19:14:56.217Z,100712.85
2023-04-27T19:19:02.481Z,100718.95
2023-04-27T19:23:05.582Z,100722.55
2023-04-27T19:27:41.723Z,100716.13
2023-04-27T19:31:46.421Z,100711.15
2023-04-27T19:36:03.236Z,100718.32
2023-04-27T19:40:08.863Z,100720.46
2023-04-27T19:44:21.150Z,100722.21
2023-04-27T19:48:24.699Z,100726.46
2023-04-27T19:52:35.202Z,100727.14
2023-04-27T19:56:41.406Z,100731.25
2023-04-27T20:00:45.185Z,100735.45
2023-04-27T20:04:51.316Z,100737.14
2023-04-27T20:08:54.992Z,100736.18
2023-04-27T20:12:58.626Z,100731.84
2023-04-27T20:17:03.230Z,100729.15
2023-04-27T20:21:06.451Z,100730.66
2023-04-27T20:25:10.872Z,100726.19
2023-04-27T20:29:14.536Z,100725.63
2023-04-27T20:33:18.103Z,100731.18
2023-04-27T20:37:21.575Z,100735.30
2023-04-27T20:41:31.064Z,100732.19
2023-04-27T20:45:34.523Z,100732.27
2023-04-27T20:49:37.863Z,100731.60
2023-04-27T20:53:41.172Z,100725.85
2023-04-27T20:57:44.382Z,100724.73
2023-04-27T21:10:42.291Z,100721.99
2023-04-27T21:14:45.192Z,100718.69
2023-04-27T21:18:50.145Z,100720.86
2023-04-27T21:22:52.813Z,100715.72
2023-04-27T21:26:56.023Z,100715.71
2023-04-27T21:30:58.763Z,100710.31
2023-04-27T21:35:02.221Z,100709.25
2023-04-27T21:39:05.968Z,100711.63
2023-04-27T21:43:09.007Z,100718.89
2023-04-27T21:47:14.824Z,100713.17
2023-04-27T21:51:17.539Z,100714.92
2023-04-27T21:55:20.388Z,100712.60
2023-04-27T21:59:24.766Z,100718.59
2023-04-27T22:03:28.702Z,100717.81
2023-04-27T22:07:32.949Z,100713.80
2023-04-27T22:11:35.938Z,100709.85
2023-04-27T22:15:38.673Z,100707.33
2023-04-27T22:19:41.738Z,100710.03
2023-04-27T22:23:44.465Z,100713.59
2023-04-27T22:27:47.730Z,100714.30
2023-04-27T22:31:52.412Z,100711.52
2023-04-27T22:35:55.387Z,100712.84
2023-04-27T22:40:06.780Z,100715.89
2023-04-27T22:44:09.563Z,100711.95
2023-04-27T22:48:13.492Z,100719.31
2023-04-27T22:52:16.623Z,100715.14
2023-04-27T22:56:19.598Z,100711.40
2023-04-27T23:00:22.568Z,100705.05
2023-04-27T23:04:26.991Z,100706.50
2023-04-27T23:08:29.681Z,100704.73
2023-04-27T23:12:33.703Z,100703.37
2023-04-27T23:16:37.938Z,100702.50
2023-04-27T23:20:40.946Z,100694.52
2023-04-27T23:24:43.627Z,100690.52
2023-04-27T23:29:10.204Z,100694.77
2023-04-27T23:33:13.784Z,100696.51
2023-04-27T23:37:27.721Z,100698.47
2023-04-27T23:41:30.473Z,100695.48
2023-04-27T23:45:39.527Z,100693.15
2023-04-27T23:49:45.537Z,100691.73
2023-04-27T23:53:59.568Z,100695.29
2023-04-27T23:58:03.100Z,100692.63
